sensor_id;sensor_type;location;lat;lon;timestamp;temperature;humidity
33825;DHT22;20127;48.962;8.342;2022-09-09T00:01:27;18.10;99.90
33825;DHT22;20127;48.962;8.342;2022-09-09T00:04:33;18.10;99.90
33825;DHT22;20127;48.962;8.342;2022-09-09T00:07:42;18.10;99.90
33825;DHT22;20127;48.962;8.342;2022-09-09T00:10:48;18.10;99.90
33825;DHT22;20127;48.962;8.342;2022-09-09T00:13:56;18.10;99.90
33825;DHT22;20127;48.962;8.342;2022-09-09T00:17:03;18.20;99.90
33825;DHT22;20127;48.962;8.342;2022-09-09T00:20:12;18.20;99.90
33825;DHT22;20127;48.962;8.342;2022-09-09T00:23:18;18.30;99.90
33825;DHT22;20127;48.962;8.342;2022-09-09T00:26:27;18.30;99.90
33825;DHT22;20127;48.962;8.342;2022-09-09T00:29:37;18.30;99.90
33825;DHT22;20127;48.962;8.342;2022-09-09T00:32:43;18.30;99.90
33825;DHT22;20127;48.962;8.342;2022-09-09T00:35:48;18.30;99.90
33825;DHT22;20127;48.962;8.342;2022-09-09T00:38:55;18.40;99.90
33825;DHT22;20127;48.962;8.342;2022-09-09T00:42:05;18.40;99.90
33825;DHT22;20127;48.962;8.342;2022-09-09T00:45:32;18.40;99.90
33825;DHT22;20127;48.962;8.342;2022-09-09T00:48:44;18.40;99.90
33825;DHT22;20127;48.962;8.342;2022-09-09T00:51:53;18.40;99.90
33825;DHT22;20127;48.962;8.342;2022-09-09T00:55:07;18.50;99.90
33825;DHT22;20127;48.962;8.342;2022-09-09T00:58:10;18.50;99.90
33825;DHT22;20127;48.962;8.342;2022-09-09T01:01:13;18.50;99.90
33825;DHT22;20127;48.962;8.342;2022-09-09T01:04:18;18.50;99.90
33825;DHT22;20127;48.962;8.342;2022-09-09T01:07:22;18.40;99.90
33825;DHT22;20127;48.962;8.342;2022-09-09T01:10:30;18.30;99.90
33825;DHT22;20127;48.962;8.342;2022-09-09T01:13:35;18.30;99.90
33825;DHT22;20127;48.962;8.342;2022-09-09T01:16:40;18.20;99.90
33825;DHT22;20127;48.962;8.342;2022-09-09T01:19:55;18.30;99.90
33825;DHT22;20127;48.962;8.342;2022-09-09T01:23:10;18.20;99.90
33825;DHT22;20127;48.962;8.342;2022-09-09T01:26:21;18.30;99.90
33825;DHT22;20127;48.962;8.342;2022-09-09T01:29:25;18.10;99.90
33825;DHT22;20127;48.962;8.342;2022-09-09T01:32:39;17.90;99.90
33825;DHT22;20127;48.962;8.342;2022-09-09T01:35:46;17.80;99.90
33825;DHT22;20127;48.962;8.342;2022-09-09T01:38:51;17.60;99.90
33825;DHT22;20127;48.962;8.342;2022-09-09T01:41:55;17.50;99.90
33825;DHT22;20127;48.962;8.342;2022-09-09T01:44:57;17.30;99.90
33825;DHT22;20127;48.962;8.342;2022-09-09T01:47:59;17.20;99.90
33825;DHT22;20127;48.962;8.342;2022-09-09T01:51:03;17.20;99.90
33825;DHT22;20127;48.962;8.342;2022-09-09T01:54:05;17.10;99.90
33825;DHT22;20127;48.962;8.342;2022-09-09T01:57:17;17.00;99.90
33825;DHT22;20127;48.962;8.342;2022-09-09T02:00:20;16.90;99.90
33825;DHT22;20127;48.962;8.342;2022-09-09T02:03:26;16.90;99.90
33825;DHT22;20127;48.962;8.342;2022-09-09T02:06:33;16.90;99.90
33825;DHT22;20127;48.962;8.342;2022-09-09T02:09:36;16.80;99.90
33825;DHT22;20127;48.962;8.342;2022-09-09T02:12:45;16.80;99.90
33825;DHT22;20127;48.962;8.342;2022-09-09T02:15:51;16.80;99.90
33825;DHT22;20127;48.962;8.342;2022-09-09T02:18:57;16.70;99.90
33825;DHT22;20127;48.962;8.342;2022-09-09T02:22:01;16.70;99.90
33825;DHT22;20127;48.962;8.342;2022-09-09T02:25:04;16.70;99.90
33825;DHT22;20127;48.962;8.342;2022-09-09T02:28:09;16.80;99.90
33825;DHT22;20127;48.962;8.342;2022-09-09T02:31:13;16.80;99.90
33825;DHT22;20127;48.962;8.342;2022-09-09T02:34:18;16.80;99.90
33825;DHT22;20127;48.962;8.342;2022-09-09T02:37:24;16.90;99.90
33825;DHT22;20127;48.962;8.342;2022-09-09T02:40:28;16.90;99.90
33825;DHT22;20127;48.962;8.342;2022-09-09T02:43:33;16.90;99.90
33825;DHT22;20127;48.962;8.342;2022-09-09T02:46:47;16.90;99.90
33825;DHT22;20127;48.962;8.342;2022-09-09T02:50:02;16.90;99.90
33825;DHT22;20127;48.962;8.342;2022-09-09T02:53:10;16.80;99.90
33825;DHT22;20127;48.962;8.342;2022-09-09T02:56:15;16.70;99.90
33825;DHT22;20127;48.962;8.342;2022-09-09T02:59:18;16.70;99.90
33825;DHT22;20127;48.962;8.342;2022-09-09T03:02:20;16.60;99.90
33825;DHT22;20127;48.962;8.342;2022-09-09T03:05:22;16.70;99.90
33825;DHT22;20127;48.962;8.342;2022-09-09T03:08:24;16.70;99.90
33825;DHT22;20127;48.962;8.342;2022-09-09T03:11:25;16.80;99.90
33825;DHT22;20127;48.962;8.342;2022-09-09T03:14:28;16.80;99.90
33825;DHT22;20127;48.962;8.342;2022-09-09T03:17:30;16.80;99.90
33825;DHT22;20127;48.962;8.342;2022-09-09T03:20:32;16.80;99.90
33825;DHT22;20127;48.962;8.342;2022-09-09T03:23:34;16.80;99.90
33825;DHT22;20127;48.962;8.342;2022-09-09T03:26:35;16.70;99.90
33825;DHT22;20127;48.962;8.342;2022-09-09T03:29:39;16.60;99.90
33825;DHT22;20127;48.962;8.342;2022-09-09T03:32:41;16.60;99.90
33825;DHT22;20127;48.962;8.342;2022-09-09T03:35:45;16.50;99.90
33825;DHT22;20127;48.962;8.342;2022-09-09T03:38:49;16.50;99.90
33825;DHT22;20127;48.962;8.342;2022-09-09T03:41:51;16.40;99.90
33825;DHT22;20127;48.962;8.342;2022-09-09T03:44:54;16.40;99.90
33825;DHT22;20127;48.962;8.342;2022-09-09T03:47:58;16.30;99.90
33825;DHT22;20127;48.962;8.342;2022-09-09T03:51:01;16.30;99.90
33825;DHT22;20127;48.962;8.342;2022-09-09T03:54:03;16.30;99.90
33825;DHT22;20127;48.962;8.342;2022-09-09T03:57:05;16.20;99.90
33825;DHT22;20127;48.962;8.342;2022-09-09T04:00:09;16.30;99.90
33825;DHT22;20127;48.962;8.342;2022-09-09T04:03:11;16.30;99.90
33825;DHT22;20127;48.962;8.342;2022-09-09T04:06:13;16.40;99.90
33825;DHT22;20127;48.962;8.342;2022-09-09T04:09:15;16.50;99.90
33825;DHT22;20127;48.962;8.342;2022-09-09T04:12:17;16.60;99.90
33825;DHT22;20127;48.962;8.342;2022-09-09T04:15:20;16.70;99.90
33825;DHT22;20127;48.962;8.342;2022-09-09T04:18:22;16.80;99.90
33825;DHT22;20127;48.962;8.342;2022-09-09T04:21:24;16.90;99.90
33825;DHT22;20127;48.962;8.342;2022-09-09T04:24:25;16.90;99.90
33825;DHT22;20127;48.962;8.342;2022-09-09T04:27:29;17.00;99.90
33825;DHT22;20127;48.962;8.342;2022-09-09T04:30:32;17.00;99.90
33825;DHT22;20127;48.962;8.342;2022-09-09T04:33:35;17.10;99.90
33825;DHT22;20127;48.962;8.342;2022-09-09T04:36:38;17.10;99.90
33825;DHT22;20127;48.962;8.342;2022-09-09T04:39:40;17.20;99.90
33825;DHT22;20127;48.962;8.342;2022-09-09T04:42:42;17.30;99.90
33825;DHT22;20127;48.962;8.342;2022-09-09T04:45:47;17.40;99.90
33825;DHT22;20127;48.962;8.342;2022-09-09T04:48:50;17.30;99.90
33825;DHT22;20127;48.962;8.342;2022-09-09T04:51:52;17.40;99.90
33825;DHT22;20127;48.962;8.342;2022-09-09T04:54:54;17.40;99.90
33825;DHT22;20127;48.962;8.342;2022-09-09T04:57:56;17.50;99.90
33825;DHT22;20127;48.962;8.342;2022-09-09T05:01:10;17.50;99.90
33825;DHT22;20127;48.962;8.342;2022-09-09T05:04:12;17.50;99.90
33825;DHT22;20127;48.962;8.342;2022-09-09T05:07:15;17.50;99.90
33825;DHT22;20127;48.962;8.342;2022-09-09T05:10:17;17.50;99.90
33825;DHT22;20127;48.962;8.342;2022-09-09T05:13:18;17.50;99.90
33825;DHT22;20127;48.962;8.342;2022-09-09T05:16:22;17.50;99.90
33825;DHT22;20127;48.962;8.342;2022-09-09T05:19:24;17.60;99.90
33825;DHT22;20127;48.962;8.342;2022-09-09T05:22:26;17.60;99.90
33825;DHT22;20127;48.962;8.342;2022-09-09T05:25:28;17.70;99.90
33825;DHT22;20127;48.962;8.342;2022-09-09T05:28:29;17.80;99.90
33825;DHT22;20127;48.962;8.342;2022-09-09T05:31:32;17.80;99.90
33825;DHT22;20127;48.962;8.342;2022-09-09T05:34:35;17.80;99.90
33825;DHT22;20127;48.962;8.342;2022-09-09T05:37:37;17.80;99.90
33825;DHT22;20127;48.962;8.342;2022-09-09T05:40:47;17.90;99.90
33825;DHT22;20127;48.962;8.342;2022-09-09T05:43:50;17.90;99.90
33825;DHT22;20127;48.962;8.342;2022-09-09T05:46:53;17.80;99.90
33825;DHT22;20127;48.962;8.342;2022-09-09T05:49:55;17.70;99.90
33825;DHT22;20127;48.962;8.342;2022-09-09T05:52:56;17.70;99.90
33825;DHT22;20127;48.962;8.342;2022-09-09T05:56:00;17.90;99.90
33825;DHT22;20127;48.962;8.342;2022-09-09T05:59:03;18.10;99.90
33825;DHT22;20127;48.962;8.342;2022-09-09T06:02:08;18.40;99.90
33825;DHT22;20127;48.962;8.342;2022-09-09T06:05:10;18.40;99.90
33825;DHT22;20127;48.962;8.342;2022-09-09T06:08:12;18.50;99.90
33825;DHT22;20127;48.962;8.342;2022-09-09T06:11:15;18.60;99.90
33825;DHT22;20127;48.962;8.342;2022-09-09T06:14:17;18.70;99.90
33825;DHT22;20127;48.962;8.342;2022-09-09T06:17:20;18.70;99.90
33825;DHT22;20127;48.962;8.342;2022-09-09T06:20:22;18.70;99.90
33825;DHT22;20127;48.962;8.342;2022-09-09T06:23:24;18.70;99.90
33825;DHT22;20127;48.962;8.342;2022-09-09T06:26:27;18.80;99.90
33825;DHT22;20127;48.962;8.342;2022-09-09T06:29:29;18.90;99.90
33825;DHT22;20127;48.962;8.342;2022-09-09T06:32:32;19.10;99.90
33825;DHT22;20127;48.962;8.342;2022-09-09T06:35:37;19.30;99.90
33825;DHT22;20127;48.962;8.342;2022-09-09T06:38:38;19.40;99.90
33825;DHT22;20127;48.962;8.342;2022-09-09T06:41:40;19.50;99.90
33825;DHT22;20127;48.962;8.342;2022-09-09T06:44:42;19.70;99.90
33825;DHT22;20127;48.962;8.342;2022-09-09T06:47:45;20.00;99.90
33825;DHT22;20127;48.962;8.342;2022-09-09T06:50:47;20.10;99.90
33825;DHT22;20127;48.962;8.342;2022-09-09T06:53:51;20.10;99.90
33825;DHT22;20127;48.962;8.342;2022-09-09T06:56:52;20.10;99.90
33825;DHT22;20127;48.962;8.342;2022-09-09T06:59:54;20.20;99.90
33825;DHT22;20127;48.962;8.342;2022-09-09T07:02:57;20.20;99.90
33825;DHT22;20127;48.962;8.342;2022-09-09T07:05:59;20.40;99.90
33825;DHT22;20127;48.962;8.342;2022-09-09T07:09:03;20.80;99.90
33825;DHT22;20127;48.962;8.342;2022-09-09T07:12:05;21.30;99.80
33825;DHT22;20127;48.962;8.342;2022-09-09T07:15:07;21.60;98.70
33825;DHT22;20127;48.962;8.342;2022-09-09T07:18:11;21.80;98.10
33825;DHT22;20127;48.962;8.342;2022-09-09T07:21:14;21.90;97.60
33825;DHT22;20127;48.962;8.342;2022-09-09T07:24:16;21.90;97.30
33825;DHT22;20127;48.962;8.342;2022-09-09T07:27:17;21.90;97.20
33825;DHT22;20127;48.962;8.342;2022-09-09T07:30:19;22.10;97.20
33825;DHT22;20127;48.962;8.342;2022-09-09T07:33:22;22.30;96.50
33825;DHT22;20127;48.962;8.342;2022-09-09T07:36:26;22.20;95.90
33825;DHT22;20127;48.962;8.342;2022-09-09T07:39:28;22.10;95.60
33825;DHT22;20127;48.962;8.342;2022-09-09T07:42:30;22.20;95.50
33825;DHT22;20127;48.962;8.342;2022-09-09T07:45:33;22.50;95.20
33825;DHT22;20127;48.962;8.342;2022-09-09T07:48:38;22.90;94.40
33825;DHT22;20127;48.962;8.342;2022-09-09T07:51:41;23.00;94.30
33825;DHT22;20127;48.962;8.342;2022-09-09T07:54:43;23.30;94.00
33825;DHT22;20127;48.962;8.342;2022-09-09T07:57:46;24.80;91.70
33825;DHT22;20127;48.962;8.342;2022-09-09T08:00:48;25.70;87.60
33825;DHT22;20127;48.962;8.342;2022-09-09T08:03:55;25.40;84.60
33825;DHT22;20127;48.962;8.342;2022-09-09T08:07:01;24.90;86.20
33825;DHT22;20127;48.962;8.342;2022-09-09T08:10:05;24.60;87.10
33825;DHT22;20127;48.962;8.342;2022-09-09T08:13:06;24.70;87.30
33825;DHT22;20127;48.962;8.342;2022-09-09T08:16:11;24.70;84.80
33825;DHT22;20127;48.962;8.342;2022-09-09T08:19:14;24.50;84.70
33825;DHT22;20127;48.962;8.342;2022-09-09T08:22:16;24.60;84.60
33825;DHT22;20127;48.962;8.342;2022-09-09T08:25:18;24.60;83.50
33825;DHT22;20127;48.962;8.342;2022-09-09T08:28:19;24.30;84.40
33825;DHT22;20127;48.962;8.342;2022-09-09T08:31:23;23.70;87.50
33825;DHT22;20127;48.962;8.342;2022-09-09T08:34:26;23.00;90.70
33825;DHT22;20127;48.962;8.342;2022-09-09T08:37:28;22.40;92.10
33825;DHT22;20127;48.962;8.342;2022-09-09T08:40:34;22.00;92.80
33825;DHT22;20127;48.962;8.342;2022-09-09T08:43:37;22.00;94.10
33825;DHT22;20127;48.962;8.342;2022-09-09T08:46:46;22.40;93.50
33825;DHT22;20127;48.962;8.342;2022-09-09T08:50:05;23.00;92.60
33825;DHT22;20127;48.962;8.342;2022-09-09T08:53:15;23.90;92.20
33825;DHT22;20127;48.962;8.342;2022-09-09T08:56:21;24.00;91.00
33825;DHT22;20127;48.962;8.342;2022-09-09T08:59:23;23.90;91.00
33825;DHT22;20127;48.962;8.342;2022-09-09T09:02:30;23.50;91.30
33825;DHT22;20127;48.962;8.342;2022-09-09T09:05:40;23.10;92.10
33825;DHT22;20127;48.962;8.342;2022-09-09T09:08:53;22.70;92.20
33825;DHT22;20127;48.962;8.342;2022-09-09T09:11:59;22.70;93.10
33825;DHT22;20127;48.962;8.342;2022-09-09T09:15:10;22.80;93.40
33825;DHT22;20127;48.962;8.342;2022-09-09T09:18:17;23.00;93.40
33825;DHT22;20127;48.962;8.342;2022-09-09T09:21:24;23.20;93.40
33825;DHT22;20127;48.962;8.342;2022-09-09T09:24:33;23.50;92.80
33825;DHT22;20127;48.962;8.342;2022-09-09T09:27:40;23.80;92.30
33825;DHT22;20127;48.962;8.342;2022-09-09T09:30:48;24.00;90.40
33825;DHT22;20127;48.962;8.342;2022-09-09T09:33:54;24.20;88.50
33825;DHT22;20127;48.962;8.342;2022-09-09T09:36:58;24.40;88.30
33825;DHT22;20127;48.962;8.342;2022-09-09T09:40:09;24.40;86.90
33825;DHT22;20127;48.962;8.342;2022-09-09T09:43:19;24.40;87.00
33825;DHT22;20127;48.962;8.342;2022-09-09T09:46:23;24.60;85.30
33825;DHT22;20127;48.962;8.342;2022-09-09T09:49:25;24.70;84.30
33825;DHT22;20127;48.962;8.342;2022-09-09T09:52:30;25.10;81.40
33825;DHT22;20127;48.962;8.342;2022-09-09T09:55:33;25.00;80.40
33825;DHT22;20127;48.962;8.342;2022-09-09T09:58:48;24.80;81.80
33825;DHT22;20127;48.962;8.342;2022-09-09T10:01:51;25.20;80.60
33825;DHT22;20127;48.962;8.342;2022-09-09T10:05:01;25.30;78.00
33825;DHT22;20127;48.962;8.342;2022-09-09T10:08:09;25.10;78.50
33825;DHT22;20127;48.962;8.342;2022-09-09T10:11:39;25.50;79.70
33825;DHT22;20127;48.962;8.342;2022-09-09T10:14:48;25.90;74.00
33825;DHT22;20127;48.962;8.342;2022-09-09T10:17:57;26.20;74.50
33825;DHT22;20127;48.962;8.342;2022-09-09T10:21:10;26.80;72.10
33825;DHT22;20127;48.962;8.342;2022-09-09T10:24:39;27.10;68.40
33825;DHT22;20127;48.962;8.342;2022-09-09T10:28:00;26.80;68.20
33825;DHT22;20127;48.962;8.342;2022-09-09T10:31:17;26.70;66.90
33825;DHT22;20127;48.962;8.342;2022-09-09T10:34:39;26.60;66.80
33825;DHT22;20127;48.962;8.342;2022-09-09T10:37:58;26.60;66.70
33825;DHT22;20127;48.962;8.342;2022-09-09T10:41:15;26.60;66.20
33825;DHT22;20127;48.962;8.342;2022-09-09T10:44:29;26.50;66.90
33825;DHT22;20127;48.962;8.342;2022-09-09T10:47:50;26.90;65.70
33825;DHT22;20127;48.962;8.342;2022-09-09T10:51:03;26.80;64.40
33825;DHT22;20127;48.962;8.342;2022-09-09T10:54:17;26.70;64.20
33825;DHT22;20127;48.962;8.342;2022-09-09T10:57:27;26.30;65.70
33825;DHT22;20127;48.962;8.342;2022-09-09T11:00:38;26.20;65.00
33825;DHT22;20127;48.962;8.342;2022-09-09T11:03:42;26.20;63.70
33825;DHT22;20127;48.962;8.342;2022-09-09T11:06:47;26.40;63.30
33825;DHT22;20127;48.962;8.342;2022-09-09T11:09:57;26.50;63.50
33825;DHT22;20127;48.962;8.342;2022-09-09T11:13:03;26.60;62.80
33825;DHT22;20127;48.962;8.342;2022-09-09T11:16:17;26.60;63.70
33825;DHT22;20127;48.962;8.342;2022-09-09T11:19:26;26.60;63.00
33825;DHT22;20127;48.962;8.342;2022-09-09T11:22:33;26.40;63.20
33825;DHT22;20127;48.962;8.342;2022-09-09T11:25:37;26.00;64.50
33825;DHT22;20127;48.962;8.342;2022-09-09T11:28:55;26.10;64.20
33825;DHT22;20127;48.962;8.342;2022-09-09T11:32:12;25.70;66.50
33825;DHT22;20127;48.962;8.342;2022-09-09T11:35:30;25.00;69.00
33825;DHT22;20127;48.962;8.342;2022-09-09T11:38:40;24.80;70.40
33825;DHT22;20127;48.962;8.342;2022-09-09T11:41:45;24.60;70.20
33825;DHT22;20127;48.962;8.342;2022-09-09T11:44:49;24.30;70.90
33825;DHT22;20127;48.962;8.342;2022-09-09T11:47:52;24.10;72.00
33825;DHT22;20127;48.962;8.342;2022-09-09T11:50:59;24.00;72.70
33825;DHT22;20127;48.962;8.342;2022-09-09T11:54:29;24.10;73.50
33825;DHT22;20127;48.962;8.342;2022-09-09T11:57:32;24.50;72.60
33825;DHT22;20127;48.962;8.342;2022-09-09T12:00:35;25.00;70.90
33825;DHT22;20127;48.962;8.342;2022-09-09T12:03:41;25.20;68.70
33825;DHT22;20127;48.962;8.342;2022-09-09T12:06:46;25.50;68.10
33825;DHT22;20127;48.962;8.342;2022-09-09T12:09:49;25.50;68.60
33825;DHT22;20127;48.962;8.342;2022-09-09T12:12:53;25.90;68.30
33825;DHT22;20127;48.962;8.342;2022-09-09T12:15:56;25.90;65.30
33825;DHT22;20127;48.962;8.342;2022-09-09T12:19:12;25.80;64.60
33825;DHT22;20127;48.962;8.342;2022-09-09T12:22:22;25.70;64.40
33825;DHT22;20127;48.962;8.342;2022-09-09T12:25:34;25.60;64.30
33825;DHT22;20127;48.962;8.342;2022-09-09T12:28:50;25.60;64.30
33825;DHT22;20127;48.962;8.342;2022-09-09T12:31:58;25.50;64.50
33825;DHT22;20127;48.962;8.342;2022-09-09T12:35:03;25.80;64.50
33825;DHT22;20127;48.962;8.342;2022-09-09T12:38:13;26.00;63.50
33825;DHT22;20127;48.962;8.342;2022-09-09T12:41:19;26.50;62.10
33825;DHT22;20127;48.962;8.342;2022-09-09T12:44:23;26.80;60.80
33825;DHT22;20127;48.962;8.342;2022-09-09T12:47:30;26.50;60.20
33825;DHT22;20127;48.962;8.342;2022-09-09T12:50:37;26.00;61.70
33825;DHT22;20127;48.962;8.342;2022-09-09T12:53:40;25.70;64.30
33825;DHT22;20127;48.962;8.342;2022-09-09T12:56:45;25.30;65.80
33825;DHT22;20127;48.962;8.342;2022-09-09T12:59:49;25.20;67.80
33825;DHT22;20127;48.962;8.342;2022-09-09T13:02:52;25.10;68.00
33825;DHT22;20127;48.962;8.342;2022-09-09T13:05:58;24.90;68.80
33825;DHT22;20127;48.962;8.342;2022-09-09T13:09:01;24.50;71.00
33825;DHT22;20127;48.962;8.342;2022-09-09T13:12:04;24.20;72.90
33825;DHT22;20127;48.962;8.342;2022-09-09T13:15:16;23.90;74.90
33825;DHT22;20127;48.962;8.342;2022-09-09T13:18:23;23.50;77.60
33825;DHT22;20127;48.962;8.342;2022-09-09T13:21:32;22.90;79.10
33825;DHT22;20127;48.962;8.342;2022-09-09T13:24:35;22.60;80.10
33825;DHT22;20127;48.962;8.342;2022-09-09T13:27:38;22.60;80.30
33825;DHT22;20127;48.962;8.342;2022-09-09T13:30:41;22.80;80.20
33825;DHT22;20127;48.962;8.342;2022-09-09T13:33:45;23.10;78.90
33825;DHT22;20127;48.962;8.342;2022-09-09T13:36:47;23.20;77.80
33825;DHT22;20127;48.962;8.342;2022-09-09T13:39:52;23.20;79.40
33825;DHT22;20127;48.962;8.342;2022-09-09T13:42:56;23.20;79.50
33825;DHT22;20127;48.962;8.342;2022-09-09T13:46:01;23.20;81.30
33825;DHT22;20127;48.962;8.342;2022-09-09T13:49:19;23.20;82.30
33825;DHT22;20127;48.962;8.342;2022-09-09T13:52:22;23.30;82.60
33825;DHT22;20127;48.962;8.342;2022-09-09T13:55:24;23.60;83.00
33825;DHT22;20127;48.962;8.342;2022-09-09T13:58:27;24.00;82.00
33825;DHT22;20127;48.962;8.342;2022-09-09T14:01:30;24.40;79.40
33825;DHT22;20127;48.962;8.342;2022-09-09T14:04:35;24.50;77.80
33825;DHT22;20127;48.962;8.342;2022-09-09T14:07:37;24.50;79.20
33825;DHT22;20127;48.962;8.342;2022-09-09T14:10:40;24.60;79.90
33825;DHT22;20127;48.962;8.342;2022-09-09T14:13:42;24.70;78.90
33825;DHT22;20127;48.962;8.342;2022-09-09T14:16:45;24.60;77.90
33825;DHT22;20127;48.962;8.342;2022-09-09T14:19:47;24.50;75.60
33825;DHT22;20127;48.962;8.342;2022-09-09T14:22:48;24.40;75.10
33825;DHT22;20127;48.962;8.342;2022-09-09T14:25:51;24.30;75.00
33825;DHT22;20127;48.962;8.342;2022-09-09T14:28:53;24.10;76.20
33825;DHT22;20127;48.962;8.342;2022-09-09T14:31:56;23.80;77.80
33825;DHT22;20127;48.962;8.342;2022-09-09T14:34:58;23.50;78.40
33825;DHT22;20127;48.962;8.342;2022-09-09T14:37:59;23.30;79.30
33825;DHT22;20127;48.962;8.342;2022-09-09T14:41:02;23.30;80.70
33825;DHT22;20127;48.962;8.342;2022-09-09T14:44:04;23.20;81.80
33825;DHT22;20127;48.962;8.342;2022-09-09T14:47:08;23.10;83.80
33825;DHT22;20127;48.962;8.342;2022-09-09T14:50:09;22.70;88.80
33825;DHT22;20127;48.962;8.342;2022-09-09T14:53:12;22.00;92.50
33825;DHT22;20127;48.962;8.342;2022-09-09T14:56:16;21.20;96.40
33825;DHT22;20127;48.962;8.342;2022-09-09T14:59:18;20.70;98.90
33825;DHT22;20127;48.962;8.342;2022-09-09T15:02:21;20.20;99.90
33825;DHT22;20127;48.962;8.342;2022-09-09T15:05:23;20.00;99.90
33825;DHT22;20127;48.962;8.342;2022-09-09T15:08:25;19.90;99.90
33825;DHT22;20127;48.962;8.342;2022-09-09T15:11:29;19.90;99.90
33825;DHT22;20127;48.962;8.342;2022-09-09T15:14:32;19.90;99.90
33825;DHT22;20127;48.962;8.342;2022-09-09T15:17:36;20.00;99.90
33825;DHT22;20127;48.962;8.342;2022-09-09T15:20:39;20.30;99.90
33825;DHT22;20127;48.962;8.342;2022-09-09T15:23:43;20.70;99.90
33825;DHT22;20127;48.962;8.342;2022-09-09T15:26:44;21.00;99.90
33825;DHT22;20127;48.962;8.342;2022-09-09T15:29:46;21.30;99.90
33825;DHT22;20127;48.962;8.342;2022-09-09T15:32:49;21.60;99.90
33825;DHT22;20127;48.962;8.342;2022-09-09T15:35:53;21.70;99.90
33825;DHT22;20127;48.962;8.342;2022-09-09T15:38:55;21.80;99.90
33825;DHT22;20127;48.962;8.342;2022-09-09T15:41:57;21.80;99.90
33825;DHT22;20127;48.962;8.342;2022-09-09T15:44:59;21.80;99.90
33825;DHT22;20127;48.962;8.342;2022-09-09T15:48:02;21.80;99.90
33825;DHT22;20127;48.962;8.342;2022-09-09T15:51:05;21.70;99.90
33825;DHT22;20127;48.962;8.342;2022-09-09T15:54:06;21.50;99.70
33825;DHT22;20127;48.962;8.342;2022-09-09T15:57:12;21.20;98.90
33825;DHT22;20127;48.962;8.342;2022-09-09T16:00:14;21.00;98.60
33825;DHT22;20127;48.962;8.342;2022-09-09T16:03:17;20.60;97.70
33825;DHT22;20127;48.962;8.342;2022-09-09T16:06:20;20.40;98.20
33825;DHT22;20127;48.962;8.342;2022-09-09T16:09:23;20.20;98.50
33825;DHT22;20127;48.962;8.342;2022-09-09T16:12:24;19.90;99.00
33825;DHT22;20127;48.962;8.342;2022-09-09T16:15:26;19.70;99.00
33825;DHT22;20127;48.962;8.342;2022-09-09T16:18:34;19.50;99.00
33825;DHT22;20127;48.962;8.342;2022-09-09T16:21:38;19.30;99.40
33825;DHT22;20127;48.962;8.342;2022-09-09T16:24:41;19.20;99.90
33825;DHT22;20127;48.962;8.342;2022-09-09T16:27:42;19.10;99.60
33825;DHT22;20127;48.962;8.342;2022-09-09T16:30:44;19.20;99.70
33825;DHT22;20127;48.962;8.342;2022-09-09T16:33:48;19.10;99.40
33825;DHT22;20127;48.962;8.342;2022-09-09T16:36:50;19.20;99.60
33825;DHT22;20127;48.962;8.342;2022-09-09T16:39:52;19.20;99.20
33825;DHT22;20127;48.962;8.342;2022-09-09T16:42:55;19.20;99.30
33825;DHT22;20127;48.962;8.342;2022-09-09T16:45:56;19.30;99.40
33825;DHT22;20127;48.962;8.342;2022-09-09T16:49:03;19.30;99.20
33825;DHT22;20127;48.962;8.342;2022-09-09T16:52:05;19.30;99.60
33825;DHT22;20127;48.962;8.342;2022-09-09T16:55:07;19.30;99.30
33825;DHT22;20127;48.962;8.342;2022-09-09T16:58:10;19.40;99.80
33825;DHT22;20127;48.962;8.342;2022-09-09T17:01:12;19.40;99.70
33825;DHT22;20127;48.962;8.342;2022-09-09T17:04:18;19.50;99.90
33825;DHT22;20127;48.962;8.342;2022-09-09T17:07:21;19.40;99.90
33825;DHT22;20127;48.962;8.342;2022-09-09T17:10:23;19.40;99.90
33825;DHT22;20127;48.962;8.342;2022-09-09T17:13:25;19.20;99.90
33825;DHT22;20127;48.962;8.342;2022-09-09T17:16:29;19.10;99.90
33825;DHT22;20127;48.962;8.342;2022-09-09T17:19:32;19.00;99.90
33825;DHT22;20127;48.962;8.342;2022-09-09T17:22:34;18.90;99.90
33825;DHT22;20127;48.962;8.342;2022-09-09T17:25:36;18.80;99.90
33825;DHT22;20127;48.962;8.342;2022-09-09T17:28:39;18.80;99.90
33825;DHT22;20127;48.962;8.342;2022-09-09T17:31:41;18.70;99.90
33825;DHT22;20127;48.962;8.342;2022-09-09T17:34:44;18.70;99.90
33825;DHT22;20127;48.962;8.342;2022-09-09T17:37:46;18.70;99.90
33825;DHT22;20127;48.962;8.342;2022-09-09T17:40:48;18.70;99.90
33825;DHT22;20127;48.962;8.342;2022-09-09T17:43:50;18.70;99.90
33825;DHT22;20127;48.962;8.342;2022-09-09T17:46:52;18.70;99.90
33825;DHT22;20127;48.962;8.342;2022-09-09T17:49:56;18.60;99.90
33825;DHT22;20127;48.962;8.342;2022-09-09T17:52:58;18.60;99.90
33825;DHT22;20127;48.962;8.342;2022-09-09T17:56:03;18.50;99.90
33825;DHT22;20127;48.962;8.342;2022-09-09T17:59:06;18.40;99.90
33825;DHT22;20127;48.962;8.342;2022-09-09T18:02:08;18.30;99.90
33825;DHT22;20127;48.962;8.342;2022-09-09T18:05:13;18.20;99.90
33825;DHT22;20127;48.962;8.342;2022-09-09T18:08:15;18.10;99.90
33825;DHT22;20127;48.962;8.342;2022-09-09T18:11:18;18.00;99.90
33825;DHT22;20127;48.962;8.342;2022-09-09T18:14:22;18.00;99.90
33825;DHT22;20127;48.962;8.342;2022-09-09T18:17:24;17.90;99.90
33825;DHT22;20127;48.962;8.342;2022-09-09T18:20:28;17.80;99.90
33825;DHT22;20127;48.962;8.342;2022-09-09T18:23:30;17.80;99.90
33825;DHT22;20127;48.962;8.342;2022-09-09T18:26:33;17.80;99.90
33825;DHT22;20127;48.962;8.342;2022-09-09T18:29:35;17.80;99.90
33825;DHT22;20127;48.962;8.342;2022-09-09T18:32:36;17.80;99.90
33825;DHT22;20127;48.962;8.342;2022-09-09T18:35:39;17.80;99.90
33825;DHT22;20127;48.962;8.342;2022-09-09T18:38:42;17.80;99.90
33825;DHT22;20127;48.962;8.342;2022-09-09T18:41:45;17.80;99.90
33825;DHT22;20127;48.962;8.342;2022-09-09T18:44:47;17.90;99.90
33825;DHT22;20127;48.962;8.342;2022-09-09T18:47:48;17.90;99.90
33825;DHT22;20127;48.962;8.342;2022-09-09T18:50:51;17.80;99.90
33825;DHT22;20127;48.962;8.342;2022-09-09T18:53:54;17.70;99.90
33825;DHT22;20127;48.962;8.342;2022-09-09T18:56:56;17.70;99.90
33825;DHT22;20127;48.962;8.342;2022-09-09T18:59:58;17.70;99.90
33825;DHT22;20127;48.962;8.342;2022-09-09T19:03:00;17.60;99.90
33825;DHT22;20127;48.962;8.342;2022-09-09T19:06:05;17.60;99.90
33825;DHT22;20127;48.962;8.342;2022-09-09T19:09:10;17.50;99.90
33825;DHT22;20127;48.962;8.342;2022-09-09T19:12:11;17.60;99.90
33825;DHT22;20127;48.962;8.342;2022-09-09T19:15:13;17.60;99.90
33825;DHT22;20127;48.962;8.342;2022-09-09T19:18:15;17.70;99.90
33825;DHT22;20127;48.962;8.342;2022-09-09T19:21:19;17.80;99.90
33825;DHT22;20127;48.962;8.342;2022-09-09T19:24:23;17.90;99.90
33825;DHT22;20127;48.962;8.342;2022-09-09T19:27:26;18.00;99.90